sensor_id;sensor_type;location;lat;lon;timestamp;P1;durP1;ratioP1;P2;durP2;ratioP2
1999;SDS011;1001;48.87406500;9.59633600;2023-05-02T00:01:59;16.17;;;13.30;;
1999;SDS011;1001;48.87406500;9.59633600;2023-05-02T00:04:26;16.00;;;13.90;;
1999;SDS011;1001;48.87406500;9.59633600;2023-05-02T00:06:52;15.50;;;13.90;;
1999;SDS011;1001;48.87406500;9.59633600;2023-05-02T00:09:19;18.30;;;13.53;;
1999;SDS011;1001;48.87406500;9.59633600;2023-05-02T00:11:46;14.73;;;13.00;;
1999;SDS011;1001;48.87406500;9.59633600;2023-05-02T00:14:12;16.40;;;14.40;;
1999;SDS011;1001;48.87406500;9.59633600;2023-05-02T00:16:39;14.70;;;12.23;;
1999;SDS011;1001;48.87406500;9.59633600;2023-05-02T00:19:07;15.43;;;12.40;;
1999;SDS011;1001;48.87406500;9.59633600;2023-05-02T00:21:33;16.70;;;13.07;;
1999;SDS011;1001;48.87406500;9.59633600;2023-05-02T00:24:00;17.93;;;15.40;;
1999;SDS011;1001;48.87406500;9.59633600;2023-05-02T00:26:27;19.80;;;13.70;;
1999;SDS011;1001;48.87406500;9.59633600;2023-05-02T00:28:53;17.20;;;13.40;;
1999;SDS011;1001;48.87406500;9.59633600;2023-05-02T00:31:20;17.13;;;13.90;;
1999;SDS011;1001;48.87406500;9.59633600;2023-05-02T00:33:46;15.67;;;12.97;;
1999;SDS011;1001;48.87406500;9.59633600;2023-05-02T00:36:14;18.30;;;14.60;;
1999;SDS011;1001;48.87406500;9.59633600;2023-05-02T00:38:42;20.07;;;15.17;;
1999;SDS011;1001;48.87406500;9.59633600;2023-05-02T00:41:09;20.47;;;14.93;;
1999;SDS011;1001;48.87406500;9.59633600;2023-05-02T00:43:36;20.13;;;15.20;;
1999;SDS011;1001;48.87406500;9.59633600;2023-05-02T00:46:03;25.23;;;16.83;;
1999;SDS011;1001;48.87406500;9.59633600;2023-05-02T00:48:31;20.20;;;15.80;;
1999;SDS011;1001;48.87406500;9.59633600;2023-05-02T00:50:58;50.03;;;19.47;;
1999;SDS011;1001;48.87406500;9.59633600;2023-05-02T00:53:30;24.57;;;16.77;;
1999;SDS011;1001;48.87406500;9.59633600;2023-05-02T00:55:57;22.90;;;16.00;;
1999;SDS011;1001;48.87406500;9.59633600;2023-05-02T00:58:23;35.70;;;18.67;;
1999;SDS011;1001;48.87406500;9.59633600;2023-05-02T01:00:56;135.60;;;24.73;;
1999;SDS011;1001;48.87406500;9.59633600;2023-05-02T01:03:31;65.53;;;20.40;;
1999;SDS011;1001;48.87406500;9.59633600;2023-05-02T01:06:08;19.53;;;15.57;;
1999;SDS011;1001;48.87406500;9.59633600;2023-05-02T01:08:49;20.00;;;16.40;;
1999;SDS011;1001;48.87406500;9.59633600;2023-05-02T01:11:22;19.80;;;14.93;;
1999;SDS011;1001;48.87406500;9.59633600;2023-05-02T01:13:56;20.40;;;15.13;;
1999;SDS011;1001;48.87406500;9.59633600;2023-05-02T01:16:24;23.83;;;16.77;;
1999;SDS011;1001;48.87406500;9.59633600;2023-05-02T01:18:51;25.37;;;17.03;;
1999;SDS011;1001;48.87406500;9.59633600;2023-05-02T01:21:19;23.13;;;15.90;;
1999;SDS011;1001;48.87406500;9.59633600;2023-05-02T01:23:51;18.10;;;15.27;;
1999;SDS011;1001;48.87406500;9.59633600;2023-05-02T01:26:23;21.13;;;16.47;;
1999;SDS011;1001;48.87406500;9.59633600;2023-05-02T01:28:57;17.90;;;14.97;;
1999;SDS011;1001;48.87406500;9.59633600;2023-05-02T01:31:25;19.37;;;15.67;;
1999;SDS011;1001;48.87406500;9.59633600;2023-05-02T01:33:54;23.80;;;16.30;;
1999;SDS011;1001;48.87406500;9.59633600;2023-05-02T01:36:24;18.63;;;15.07;;
1999;SDS011;1001;48.87406500;9.59633600;2023-05-02T01:38:54;24.20;;;17.00;;
1999;SDS011;1001;48.87406500;9.59633600;2023-05-02T01:41:22;21.90;;;16.40;;
1999;SDS011;1001;48.87406500;9.59633600;2023-05-02T01:43:51;23.00;;;15.67;;
1999;SDS011;1001;48.87406500;9.59633600;2023-05-02T01:46:22;16.00;;;14.20;;
1999;SDS011;1001;48.87406500;9.59633600;2023-05-02T01:48:51;21.27;;;15.20;;
1999;SDS011;1001;48.87406500;9.59633600;2023-05-02T01:51:20;18.33;;;14.33;;
1999;SDS011;1001;48.87406500;9.59633600;2023-05-02T01:53:48;19.77;;;16.60;;
1999;SDS011;1001;48.87406500;9.59633600;2023-05-02T01:56:17;21.17;;;16.60;;
1999;SDS011;1001;48.87406500;9.59633600;2023-05-02T01:58:46;16.73;;;13.70;;
1999;SDS011;1001;48.87406500;9.59633600;2023-05-02T02:01:13;19.43;;;16.13;;
1999;SDS011;1001;48.87406500;9.59633600;2023-05-02T02:03:42;19.90;;;16.87;;
1999;SDS011;1001;48.87406500;9.59633600;2023-05-02T02:06:10;19.67;;;15.10;;
1999;SDS011;1001;48.87406500;9.59633600;2023-05-02T02:08:38;22.83;;;16.47;;
1999;SDS011;1001;48.87406500;9.59633600;2023-05-02T02:11:07;20.20;;;15.90;;
1999;SDS011;1001;48.87406500;9.59633600;2023-05-02T02:13:38;21.47;;;16.90;;
1999;SDS011;1001;48.87406500;9.59633600;2023-05-02T02:16:09;21.43;;;17.10;;
1999;SDS011;1001;48.87406500;9.59633600;2023-05-02T02:18:39;21.57;;;17.27;;
1999;SDS011;1001;48.87406500;9.59633600;2023-05-02T02:21:10;20.80;;;15.93;;
1999;SDS011;1001;48.87406500;9.59633600;2023-05-02T02:23:37;21.13;;;15.60;;
1999;SDS011;1001;48.87406500;9.59633600;2023-05-02T02:26:07;17.93;;;14.77;;
1999;SDS011;1001;48.87406500;9.59633600;2023-05-02T02:28:34;20.40;;;15.47;;
1999;SDS011;1001;48.87406500;9.59633600;2023-05-02T02:31:01;17.70;;;14.70;;
1999;SDS011;1001;48.87406500;9.59633600;2023-05-02T02:33:29;16.57;;;14.33;;
1999;SDS011;1001;48.87406500;9.59633600;2023-05-02T02:36:00;18.20;;;14.93;;
1999;SDS011;1001;48.87406500;9.59633600;2023-05-02T02:38:35;20.33;;;16.80;;
1999;SDS011;1001;48.87406500;9.59633600;2023-05-02T02:41:10;17.93;;;15.10;;
1999;SDS011;1001;48.87406500;9.59633600;2023-05-02T02:43:41;21.93;;;16.37;;
1999;SDS011;1001;48.87406500;9.59633600;2023-05-02T02:46:15;18.00;;;15.43;;
1999;SDS011;1001;48.87406500;9.59633600;2023-05-02T02:48:52;18.53;;;15.27;;
1999;SDS011;1001;48.87406500;9.59633600;2023-05-02T02:51:28;20.43;;;15.50;;
1999;SDS011;1001;48.87406500;9.59633600;2023-05-02T02:53:59;20.10;;;15.63;;
1999;SDS011;1001;48.87406500;9.59633600;2023-05-02T02:56:35;18.60;;;13.83;;
1999;SDS011;1001;48.87406500;9.59633600;2023-05-02T02:59:06;20.47;;;15.60;;
1999;SDS011;1001;48.87406500;9.59633600;2023-05-02T03:01:40;36.23;;;17.67;;
1999;SDS011;1001;48.87406500;9.59633600;2023-05-02T03:04:11;25.13;;;17.57;;
1999;SDS011;1001;48.87406500;9.59633600;2023-05-02T03:06:42;21.90;;;17.10;;
1999;SDS011;1001;48.87406500;9.59633600;2023-05-02T03:09:13;24.60;;;16.90;;
1999;SDS011;1001;48.87406500;9.59633600;2023-05-02T03:11:41;25.67;;;17.13;;
1999;SDS011;1001;48.87406500;9.59633600;2023-05-02T03:14:09;23.77;;;17.30;;
1999;SDS011;1001;48.87406500;9.59633600;2023-05-02T03:16:36;25.70;;;18.07;;
1999;SDS011;1001;48.87406500;9.59633600;2023-05-02T03:19:03;22.30;;;16.90;;
1999;SDS011;1001;48.87406500;9.59633600;2023-05-02T03:21:30;24.67;;;17.27;;
1999;SDS011;1001;48.87406500;9.59633600;2023-05-02T03:23:59;23.17;;;17.77;;
1999;SDS011;1001;48.87406500;9.59633600;2023-05-02T03:26:27;21.73;;;17.60;;
1999;SDS011;1001;48.87406500;9.59633600;2023-05-02T03:28:54;22.80;;;16.57;;
1999;SDS011;1001;48.87406500;9.59633600;2023-05-02T03:31:22;24.23;;;15.90;;
1999;SDS011;1001;48.87406500;9.59633600;2023-05-02T03:33:48;21.83;;;17.77;;
1999;SDS011;1001;48.87406500;9.59633600;2023-05-02T03:36:15;24.83;;;19.30;;
1999;SDS011;1001;48.87406500;9.59633600;2023-05-02T03:38:42;20.60;;;17.50;;
1999;SDS011;1001;48.87406500;9.59633600;2023-05-02T03:41:10;25.47;;;18.77;;
1999;SDS011;1001;48.87406500;9.59633600;2023-05-02T03:43:36;23.30;;;18.40;;
1999;SDS011;1001;48.87406500;9.59633600;2023-05-02T03:46:03;29.97;;;20.27;;
1999;SDS011;1001;48.87406500;9.59633600;2023-05-02T03:48:31;26.23;;;18.43;;
1999;SDS011;1001;48.87406500;9.59633600;2023-05-02T03:50:58;25.80;;;19.23;;
1999;SDS011;1001;48.87406500;9.59633600;2023-05-02T03:53:25;29.30;;;19.20;;
1999;SDS011;1001;48.87406500;9.59633600;2023-05-02T03:55:52;24.10;;;19.07;;
1999;SDS011;1001;48.87406500;9.59633600;2023-05-02T03:58:20;28.03;;;18.90;;
1999;SDS011;1001;48.87406500;9.59633600;2023-05-02T04:00:47;27.23;;;18.77;;
1999;SDS011;1001;48.87406500;9.59633600;2023-05-02T04:03:13;22.40;;;16.60;;
1999;SDS011;1001;48.87406500;9.59633600;2023-05-02T04:05:40;21.70;;;17.07;;
1999;SDS011;1001;48.87406500;9.59633600;2023-05-02T04:08:07;21.93;;;17.90;;
1999;SDS011;1001;48.87406500;9.59633600;2023-05-02T04:10:34;19.80;;;17.47;;
1999;SDS011;1001;48.87406500;9.59633600;2023-05-02T04:13:01;22.83;;;16.33;;
1999;SDS011;1001;48.87406500;9.59633600;2023-05-02T04:15:29;22.77;;;17.37;;
1999;SDS011;1001;48.87406500;9.59633600;2023-05-02T04:17:56;23.20;;;18.20;;
1999;SDS011;1001;48.87406500;9.59633600;2023-05-02T04:20:23;21.63;;;17.70;;
1999;SDS011;1001;48.87406500;9.59633600;2023-05-02T04:22:50;18.73;;;16.67;;
1999;SDS011;1001;48.87406500;9.59633600;2023-05-02T04:25:17;21.40;;;15.30;;
1999;SDS011;1001;48.87406500;9.59633600;2023-05-02T04:27:44;21.50;;;17.17;;
1999;SDS011;1001;48.87406500;9.59633600;2023-05-02T04:30:10;23.10;;;17.70;;
1999;SDS011;1001;48.87406500;9.59633600;2023-05-02T04:32:39;22.00;;;16.63;;
1999;SDS011;1001;48.87406500;9.59633600;2023-05-02T04:35:05;19.13;;;16.20;;
1999;SDS011;1001;48.87406500;9.59633600;2023-05-02T04:37:33;21.70;;;17.70;;
1999;SDS011;1001;48.87406500;9.59633600;2023-05-02T04:40:00;20.67;;;16.60;;
1999;SDS011;1001;48.87406500;9.59633600;2023-05-02T04:42:27;21.10;;;16.40;;
1999;SDS011;1001;48.87406500;9.59633600;2023-05-02T04:44:54;20.97;;;16.50;;
1999;SDS011;1001;48.87406500;9.59633600;2023-05-02T04:47:20;21.93;;;18.40;;
1999;SDS011;1001;48.87406500;9.59633600;2023-05-02T04:49:48;19.50;;;16.03;;
1999;SDS011;1001;48.87406500;9.59633600;2023-05-02T04:52:15;21.83;;;15.73;;
1999;SDS011;1001;48.87406500;9.59633600;2023-05-02T04:54:42;20.23;;;15.97;;
1999;SDS011;1001;48.87406500;9.59633600;2023-05-02T04:57:09;23.70;;;16.90;;
1999;SDS011;1001;48.87406500;9.59633600;2023-05-02T04:59:36;22.93;;;16.80;;
1999;SDS011;1001;48.87406500;9.59633600;2023-05-02T05:02:02;18.57;;;15.83;;
1999;SDS011;1001;48.87406500;9.59633600;2023-05-02T05:04:29;21.77;;;17.10;;
1999;SDS011;1001;48.87406500;9.59633600;2023-05-02T05:06:57;21.47;;;16.90;;
1999;SDS011;1001;48.87406500;9.59633600;2023-05-02T05:09:24;18.33;;;15.60;;
1999;SDS011;1001;48.87406500;9.59633600;2023-05-02T05:11:50;20.80;;;16.30;;
1999;SDS011;1001;48.87406500;9.59633600;2023-05-02T05:14:17;18.93;;;16.37;;
1999;SDS011;1001;48.87406500;9.59633600;2023-05-02T05:16:43;22.33;;;16.00;;
1999;SDS011;1001;48.87406500;9.59633600;2023-05-02T05:19:10;18.43;;;15.97;;
1999;SDS011;1001;48.87406500;9.59633600;2023-05-02T05:21:37;20.23;;;15.27;;
1999;SDS011;1001;48.87406500;9.59633600;2023-05-02T05:24:05;20.67;;;17.23;;
1999;SDS011;1001;48.87406500;9.59633600;2023-05-02T05:26:32;19.40;;;15.63;;
1999;SDS011;1001;48.87406500;9.59633600;2023-05-02T05:28:59;19.53;;;16.30;;
1999;SDS011;1001;48.87406500;9.59633600;2023-05-02T05:31:25;16.10;;;14.37;;
1999;SDS011;1001;48.87406500;9.59633600;2023-05-02T05:33:52;15.80;;;14.07;;
1999;SDS011;1001;48.87406500;9.59633600;2023-05-02T05:36:19;22.63;;;15.77;;
1999;SDS011;1001;48.87406500;9.59633600;2023-05-02T05:38:45;17.40;;;14.33;;
1999;SDS011;1001;48.87406500;9.59633600;2023-05-02T05:41:13;16.23;;;14.13;;
1999;SDS011;1001;48.87406500;9.59633600;2023-05-02T05:43:40;17.30;;;14.73;;
1999;SDS011;1001;48.87406500;9.59633600;2023-05-02T05:46:06;16.80;;;13.67;;
1999;SDS011;1001;48.87406500;9.59633600;2023-05-02T05:48:33;16.63;;;14.30;;
1999;SDS011;1001;48.87406500;9.59633600;2023-05-02T05:51:02;21.40;;;15.30;;
1999;SDS011;1001;48.87406500;9.59633600;2023-05-02T05:53:29;18.43;;;14.10;;
1999;SDS011;1001;48.87406500;9.59633600;2023-05-02T05:55:55;18.27;;;14.07;;
1999;SDS011;1001;48.87406500;9.59633600;2023-05-02T05:58:24;18.63;;;14.90;;
1999;SDS011;1001;48.87406500;9.59633600;2023-05-02T06:00:51;16.20;;;14.50;;
1999;SDS011;1001;48.87406500;9.59633600;2023-05-02T06:03:19;18.07;;;14.00;;
1999;SDS011;1001;48.87406500;9.59633600;2023-05-02T06:05:45;15.10;;;13.53;;
1999;SDS011;1001;48.87406500;9.59633600;2023-05-02T06:08:12;16.77;;;14.27;;
1999;SDS011;1001;48.87406500;9.59633600;2023-05-02T06:10:38;19.43;;;13.80;;
1999;SDS011;1001;48.87406500;9.59633600;2023-05-02T06:13:05;15.87;;;14.30;;
1999;SDS011;1001;48.87406500;9.59633600;2023-05-02T06:15:33;15.77;;;13.97;;
1999;SDS011;1001;48.87406500;9.59633600;2023-05-02T06:18:00;19.20;;;14.87;;
1999;SDS011;1001;48.87406500;9.59633600;2023-05-02T06:20:27;17.40;;;14.33;;
1999;SDS011;1001;48.87406500;9.59633600;2023-05-02T06:22:53;17.33;;;13.80;;
1999;SDS011;1001;48.87406500;9.59633600;2023-05-02T06:25:20;14.70;;;13.20;;
1999;SDS011;1001;48.87406500;9.59633600;2023-05-02T06:27:46;17.23;;;12.53;;
1999;SDS011;1001;48.87406500;9.59633600;2023-05-02T06:30:13;16.30;;;13.50;;
1999;SDS011;1001;48.87406500;9.59633600;2023-05-02T06:32:41;14.30;;;12.80;;
1999;SDS011;1001;48.87406500;9.59633600;2023-05-02T06:35:08;14.70;;;13.23;;
1999;SDS011;1001;48.87406500;9.59633600;2023-05-02T06:37:35;16.27;;;13.17;;
1999;SDS011;1001;48.87406500;9.59633600;2023-05-02T06:40:02;14.20;;;12.70;;
1999;SDS011;1001;48.87406500;9.59633600;2023-05-02T06:42:29;13.80;;;12.40;;
1999;SDS011;1001;48.87406500;9.59633600;2023-05-02T06:44:56;14.17;;;12.70;;
1999;SDS011;1001;48.87406500;9.59633600;2023-05-02T06:47:22;14.53;;;13.07;;
1999;SDS011;1001;48.87406500;9.59633600;2023-05-02T06:49:51;13.97;;;12.10;;
1999;SDS011;1001;48.87406500;9.59633600;2023-05-02T06:52:17;12.37;;;11.03;;
1999;SDS011;1001;48.87406500;9.59633600;2023-05-02T06:54:44;14.67;;;12.13;;
1999;SDS011;1001;48.87406500;9.59633600;2023-05-02T06:57:11;13.03;;;11.67;;
1999;SDS011;1001;48.87406500;9.59633600;2023-05-02T06:59:38;16.57;;;12.80;;
1999;SDS011;1001;48.87406500;9.59633600;2023-05-02T07:02:04;14.43;;;11.50;;
1999;SDS011;1001;48.87406500;9.59633600;2023-05-02T07:04:31;15.70;;;12.67;;
1999;SDS011;1001;48.87406500;9.59633600;2023-05-02T07:06:59;13.03;;;11.63;;
1999;SDS011;1001;48.87406500;9.59633600;2023-05-02T07:09:26;15.23;;;11.07;;
1999;SDS011;1001;48.87406500;9.59633600;2023-05-02T07:11:52;14.13;;;12.10;;
1999;SDS011;1001;48.87406500;9.59633600;2023-05-02T07:14:19;12.77;;;9.83;;
1999;SDS011;1001;48.87406500;9.59633600;2023-05-02T07:16:45;10.10;;;9.00;;
1999;SDS011;1001;48.87406500;9.59633600;2023-05-02T07:19:12;13.77;;;12.23;;
1999;SDS011;1001;48.87406500;9.59633600;2023-05-02T07:21:39;13.83;;;11.77;;
1999;SDS011;1001;48.87406500;9.59633600;2023-05-02T07:24:07;12.97;;;11.57;;
1999;SDS011;1001;48.87406500;9.59633600;2023-05-02T07:26:33;13.73;;;11.57;;
1999;SDS011;1001;48.87406500;9.59633600;2023-05-02T07:29:00;12.67;;;11.37;;
1999;SDS011;1001;48.87406500;9.59633600;2023-05-02T07:31:26;16.17;;;12.10;;
1999;SDS011;1001;48.87406500;9.59633600;2023-05-02T07:33:53;13.07;;;11.67;;
1999;SDS011;1001;48.87406500;9.59633600;2023-05-02T07:36:20;14.00;;;11.90;;
1999;SDS011;1001;48.87406500;9.59633600;2023-05-02T07:38:46;13.90;;;11.47;;
1999;SDS011;1001;48.87406500;9.59633600;2023-05-02T07:41:14;12.73;;;11.50;;
1999;SDS011;1001;48.87406500;9.59633600;2023-05-02T07:43:41;11.30;;;10.20;;
1999;SDS011;1001;48.87406500;9.59633600;2023-05-02T07:46:07;14.23;;;11.27;;
1999;SDS011;1001;48.87406500;9.59633600;2023-05-02T07:48:35;12.87;;;11.57;;
1999;SDS011;1001;48.87406500;9.59633600;2023-05-02T07:51:05;12.07;;;10.87;;
1999;SDS011;1001;48.87406500;9.59633600;2023-05-02T07:53:32;12.50;;;11.20;;
1999;SDS011;1001;48.87406500;9.59633600;2023-05-02T07:55:58;11.70;;;10.50;;
1999;SDS011;1001;48.87406500;9.59633600;2023-05-02T07:58:26;11.80;;;10.60;;
1999;SDS011;1001;48.87406500;9.59633600;2023-05-02T08:00:53;12.93;;;10.80;;
1999;SDS011;1001;48.87406500;9.59633600;2023-05-02T08:03:20;14.60;;;12.27;;
1999;SDS011;1001;48.87406500;9.59633600;2023-05-02T08:05:46;11.90;;;10.27;;
1999;SDS011;1001;48.87406500;9.59633600;2023-05-02T08:08:13;13.70;;;11.00;;
1999;SDS011;1001;48.87406500;9.59633600;2023-05-02T08:10:39;10.87;;;9.87;;
1999;SDS011;1001;48.87406500;9.59633600;2023-05-02T08:13:06;11.03;;;10.00;;
1999;SDS011;1001;48.87406500;9.59633600;2023-05-02T08:15:34;10.70;;;9.20;;
1999;SDS011;1001;48.87406500;9.59633600;2023-05-02T08:18:01;11.67;;;10.17;;
1999;SDS011;1001;48.87406500;9.59633600;2023-05-02T08:20:27;11.70;;;10.50;;
1999;SDS011;1001;48.87406500;9.59633600;2023-05-02T08:22:54;11.70;;;10.10;;
1999;SDS011;1001;48.87406500;9.59633600;2023-05-02T08:25:21;11.93;;;10.73;;
1999;SDS011;1001;48.87406500;9.59633600;2023-05-02T08:27:47;10.83;;;9.80;;
1999;SDS011;1001;48.87406500;9.59633600;2023-05-02T08:30:14;12.60;;;11.30;;
1999;SDS011;1001;48.87406500;9.59633600;2023-05-02T08:32:42;14.00;;;12.50;;
1999;SDS011;1001;48.87406500;9.59633600;2023-05-02T08:35:09;12.60;;;11.33;;
1999;SDS011;1001;48.87406500;9.59633600;2023-05-02T08:37:36;14.17;;;11.67;;
1999;SDS011;1001;48.87406500;9.59633600;2023-05-02T08:40:03;13.43;;;12.03;;
1999;SDS011;1001;48.87406500;9.59633600;2023-05-02T08:42:31;14.10;;;11.80;;
1999;SDS011;1001;48.87406500;9.59633600;2023-05-02T08:44:59;15.57;;;13.97;;
1999;SDS011;1001;48.87406500;9.59633600;2023-05-02T08:47:26;15.50;;;13.90;;
1999;SDS011;1001;48.87406500;9.59633600;2023-05-02T08:49:56;14.10;;;12.70;;
1999;SDS011;1001;48.87406500;9.59633600;2023-05-02T08:52:25;14.43;;;12.93;;
1999;SDS011;1001;48.87406500;9.59633600;2023-05-02T08:54:52;13.93;;;12.50;;
1999;SDS011;1001;48.87406500;9.59633600;2023-05-02T08:57:20;14.53;;;13.13;;
1999;SDS011;1001;48.87406500;9.59633600;2023-05-02T08:59:47;15.13;;;13.53;;
1999;SDS011;1001;48.87406500;9.59633600;2023-05-02T09:02:16;14.53;;;13.13;;
1999;SDS011;1001;48.87406500;9.59633600;2023-05-02T09:04:50;14.93;;;12.93;;
1999;SDS011;1001;48.87406500;9.59633600;2023-05-02T09:07:22;14.03;;;12.57;;
1999;SDS011;1001;48.87406500;9.59633600;2023-05-02T09:09:48;15.47;;;13.23;;
1999;SDS011;1001;48.87406500;9.59633600;2023-05-02T09:12:15;15.83;;;14.43;;
1999;SDS011;1001;48.87406500;9.59633600;2023-05-02T09:14:42;14.93;;;13.23;;
1999;SDS011;1001;48.87406500;9.59633600;2023-05-02T09:17:09;15.30;;;12.10;;
1999;SDS011;1001;48.87406500;9.59633600;2023-05-02T09:19:36;14.30;;;12.80;;
1999;SDS011;1001;48.87406500;9.59633600;2023-05-02T09:22:02;14.37;;;12.90;;
1999;SDS011;1001;48.87406500;9.59633600;2023-05-02T09:24:30;13.87;;;12.57;;
1999;SDS011;1001;48.87406500;9.59633600;2023-05-02T09:26:58;15.63;;;13.73;;
1999;SDS011;1001;48.87406500;9.59633600;2023-05-02T09:29:27;14.43;;;12.60;;
1999;SDS011;1001;48.87406500;9.59633600;2023-05-02T09:31:59;16.07;;;13.43;;
1999;SDS011;1001;48.87406500;9.59633600;2023-05-02T09:34:26;15.40;;;13.80;;
1999;SDS011;1001;48.87406500;9.59633600;2023-05-02T09:36:52;14.17;;;12.77;;
1999;SDS011;1001;48.87406500;9.59633600;2023-05-02T09:39:20;13.83;;;12.27;;
1999;SDS011;1001;48.87406500;9.59633600;2023-05-02T09:41:48;13.20;;;12.00;;
1999;SDS011;1001;48.87406500;9.59633600;2023-05-02T09:44:15;13.30;;;11.90;;
1999;SDS011;1001;48.87406500;9.59633600;2023-05-02T09:46:43;14.20;;;12.80;;
1999;SDS011;1001;48.87406500;9.59633600;2023-05-02T09:49:10;13.03;;;11.73;;
1999;SDS011;1001;48.87406500;9.59633600;2023-05-02T09:51:38;13.70;;;12.30;;
1999;SDS011;1001;48.87406500;9.59633600;2023-05-02T09:54:07;13.77;;;12.37;;
1999;SDS011;1001;48.87406500;9.59633600;2023-05-02T09:59:21;13.93;;;12.60;;
1999;SDS011;1001;48.87406500;9.59633600;2023-05-02T10:01:53;14.17;;;12.83;;
1999;SDS011;1001;48.87406500;9.59633600;2023-05-02T10:04:21;12.90;;;11.70;;
1999;SDS011;1001;48.87406500;9.59633600;2023-05-02T10:06:49;13.53;;;12.17;;
1999;SDS011;1001;48.87406500;9.59633600;2023-05-02T10:09:17;14.13;;;12.73;;
1999;SDS011;1001;48.87406500;9.59633600;2023-05-02T10:11:45;14.40;;;13.07;;
1999;SDS011;1001;48.87406500;9.59633600;2023-05-02T10:14:13;14.77;;;13.17;;
1999;SDS011;1001;48.87406500;9.59633600;2023-05-02T10:16:43;13.87;;;12.43;;
1999;SDS011;1001;48.87406500;9.59633600;2023-05-02T10:19:19;14.80;;;12.90;;
1999;SDS011;1001;48.87406500;9.59633600;2023-05-02T10:21:49;17.70;;;12.57;;
1999;SDS011;1001;48.87406500;9.59633600;2023-05-02T10:24:17;13.97;;;12.17;;
1999;SDS011;1001;48.87406500;9.59633600;2023-05-02T10:26:44;14.50;;;13.00;;
1999;SDS011;1001;48.87406500;9.59633600;2023-05-02T10:29:13;13.93;;;12.67;;
1999;SDS011;1001;48.87406500;9.59633600;2023-05-02T10:31:40;16.13;;;14.07;;
1999;SDS011;1001;48.87406500;9.59633600;2023-05-02T10:34:08;18.10;;;12.60;;
1999;SDS011;1001;48.87406500;9.59633600;2023-05-02T10:36:37;14.73;;;13.13;;
1999;SDS011;1001;48.87406500;9.59633600;2023-05-02T10:39:04;15.00;;;13.43;;
1999;SDS011;1001;48.87406500;9.59633600;2023-05-02T10:41:32;13.60;;;11.83;;
1999;SDS011;1001;48.87406500;9.59633600;2023-05-02T10:44:00;12.73;;;11.53;;
1999;SDS011;1001;48.87406500;9.59633600;2023-05-02T10:46:33;12.73;;;11.53;;
1999;SDS011;1001;48.87406500;9.59633600;2023-05-02T10:49:01;13.67;;;12.30;;
1999;SDS011;1001;48.87406500;9.59633600;2023-05-02T10:51:29;14.10;;;12.60;;
1999;SDS011;1001;48.87406500;9.59633600;2023-05-02T10:59:32;17.27;;;13.63;;
1999;SDS011;1001;48.87406500;9.59633600;2023-05-02T11:02:01;15.60;;;14.03;;
1999;SDS011;1001;48.87406500;9.59633600;2023-05-02T11:07:26;14.60;;;13.20;;
1999;SDS011;1001;48.87406500;9.59633600;2023-05-02T11:10:09;12.33;;;11.03;;
1999;SDS011;1001;48.87406500;9.59633600;2023-05-02T11:12:51;13.03;;;11.83;;
1999;SDS011;1001;48.87406500;9.59633600;2023-05-02T11:18:19;12.90;;;11.60;;
1999;SDS011;1001;48.87406500;9.59633600;2023-05-02T11:20:46;15.77;;;12.63;;
1999;SDS011;1001;48.87406500;9.59633600;2023-05-02T11:23:19;13.23;;;11.83;;
1999;SDS011;1001;48.87406500;9.59633600;2023-05-02T11:25:53;13.80;;;11.50;;
1999;SDS011;1001;48.87406500;9.59633600;2023-05-02T11:31:07;11.40;;;10.20;;
1999;SDS011;1001;48.87406500;9.59633600;2023-05-02T11:33:36;12.10;;;10.90;;
1999;SDS011;1001;48.87406500;9.59633600;2023-05-02T11:36:03;11.83;;;10.63;;
1999;SDS011;1001;48.87406500;9.59633600;2023-05-02T11:38:39;12.60;;;11.30;;
1999;SDS011;1001;48.87406500;9.59633600;2023-05-02T11:41:05;11.97;;;10.83;;
1999;SDS011;1001;48.87406500;9.59633600;2023-05-02T11:43:32;11.10;;;9.77;;
1999;SDS011;1001;48.87406500;9.59633600;2023-05-02T11:45:59;12.20;;;10.90;;
1999;SDS011;1001;48.87406500;9.59633600;2023-05-02T11:48:26;11.50;;;10.40;;
1999;SDS011;1001;48.87406500;9.59633600;2023-05-02T11:50:55;12.27;;;11.10;;
1999;SDS011;1001;48.87406500;9.59633600;2023-05-02T11:53:26;12.03;;;10.83;;
1999;SDS011;1001;48.87406500;9.59633600;2023-05-02T11:55:54;14.07;;;11.67;;
1999;SDS011;1001;48.87406500;9.59633600;2023-05-02T11:58:23;15.00;;;13.60;;
1999;SDS011;1001;48.87406500;9.59633600;2023-05-02T12:00:51;14.90;;;13.33;;
1999;SDS011;1001;48.87406500;9.59633600;2023-05-02T12:03:22;14.93;;;11.47;;
1999;SDS011;1001;48.87406500;9.59633600;2023-05-02T12:05:50;15.03;;;13.53;;
1999;SDS011;1001;48.87406500;9.59633600;2023-05-02T12:08:19;17.30;;;13.33;;
1999;SDS011;1001;48.87406500;9.59633600;2023-05-02T12:10:48;17.27;;;15.40;;
1999;SDS011;1001;48.87406500;9.59633600;2023-05-02T12:13:15;18.07;;;16.23;;
1999;SDS011;1001;48.87406500;9.59633600;2023-05-02T12:15:42;18.23;;;15.90;;
1999;SDS011;1001;48.87406500;9.59633600;2023-05-02T12:18:09;17.60;;;14.30;;
1999;SDS011;1001;48.87406500;9.59633600;2023-05-02T12:20:36;18.53;;;16.33;;
1999;SDS011;1001;48.87406500;9.59633600;2023-05-02T12:23:04;17.03;;;14.70;;
1999;SDS011;1001;48.87406500;9.59633600;2023-05-02T12:25:36;17.87;;;15.97;;
1999;SDS011;1001;48.87406500;9.59633600;2023-05-02T12:28:04;15.37;;;11.53;;
1999;SDS011;1001;48.87406500;9.59633600;2023-05-02T12:30:31;15.00;;;12.40;;
1999;SDS011;1001;48.87406500;9.59633600;2023-05-02T12:32:58;16.73;;;12.03;;
1999;SDS011;1001;48.87406500;9.59633600;2023-05-02T12:35:27;17.20;;;12.27;;
1999;SDS011;1001;48.87406500;9.59633600;2023-05-02T12:37:54;16.60;;;13.30;;
1999;SDS011;1001;48.87406500;9.59633600;2023-05-02T12:40:34;14.43;;;12.80;;
1999;SDS011;1001;48.87406500;9.59633600;2023-05-02T12:43:02;15.20;;;12.37;;
1999;SDS011;1001;48.87406500;9.59633600;2023-05-02T12:45:32;13.33;;;10.90;;
1999;SDS011;1001;48.87406500;9.59633600;2023-05-02T12:47:59;14.17;;;11.47;;
1999;SDS011;1001;48.87406500;9.59633600;2023-05-02T12:50:36;12.20;;;10.90;;
1999;SDS011;1001;48.87406500;9.59633600;2023-05-02T12:53:03;18.23;;;14.87;;
1999;SDS011;1001;48.87406500;9.59633600;2023-05-02T12:55:30;13.47;;;12.10;;
1999;SDS011;1001;48.87406500;9.59633600;2023-05-02T12:58:02;19.33;;;15.03;;
1999;SDS011;1001;48.87406500;9.59633600;2023-05-02T13:00:29;21.03;;;18.30;;
1999;SDS011;1001;48.87406500;9.59633600;2023-05-02T13:02:57;25.37;;;18.47;;
1999;SDS011;1001;48.87406500;9.59633600;2023-05-02T13:05:23;24.03;;;19.93;;
1999;SDS011;1001;48.87406500;9.59633600;2023-05-02T13:07:50;20.43;;;18.30;;
1999;SDS011;1001;48.87406500;9.59633600;2023-05-02T13:10:17;23.03;;;19.47;;
1999;SDS011;1001;48.87406500;9.59633600;2023-05-02T13:12:44;16.30;;;14.10;;